createdAt,value
2023-04-22T00:00:18.931Z,14.14
2023-04-22T00:02:47.006Z,14.22
2023-04-22T00:05:16.588Z,13.85
2023-04-22T00:07:46.327Z,13.35
2023-04-22T00:10:13.472Z,13.31
2023-04-22T00:12:41.234Z,13.38
2023-04-22T00:15:10.923Z,13.22
2023-04-22T00:17:38.074Z,13.35
2023-04-22T00:20:07.764Z,13.49
2023-04-22T00:22:34.663Z,13.58
2023-04-22T00:25:01.756Z,13.62
2023-04-22T00:27:28.728Z,13.58
2023-04-22T00:29:55.802Z,13.56
2023-04-22T00:32:22.861Z,13.60
2023-04-22T00:34:50.601Z,13.24
2023-04-22T00:37:17.563Z,13.17
2023-04-22T00:39:44.405Z,12.89
2023-04-22T00:42:13.774Z,12.96
2023-04-22T00:44:41.172Z,13.32
2023-04-22T00:47:10.107Z,13.39
2023-04-22T00:49:37.732Z,13.45
2023-04-22T00:52:06.076Z,13.51
2023-04-22T00:54:36.128Z,13.49
2023-04-22T00:57:05.494Z,13.33
2023-04-22T00:59:32.680Z,13.53
2023-04-22T01:02:00.656Z,13.19
2023-04-22T01:04:28.588Z,13.02
2023-04-22T01:06:55.673Z,13.22
2023-04-22T01:09:23.743Z,12.98
2023-04-22T01:11:51.939Z,13.16
2023-04-22T01:14:19.951Z,13.16
2023-04-22T01:16:48.413Z,13.29
2023-04-22T01:19:16.878Z,13.54
2023-04-22T01:21:45.382Z,13.27
2023-04-22T01:24:12.408Z,13.41
2023-04-22T01:26:40.409Z,13.51
2023-04-22T01:29:09.279Z,13.49
2023-04-22T01:31:36.998Z,13.76
2023-04-22T01:34:03.989Z,13.84
2023-04-22T01:36:32.739Z,13.88
2023-04-22T01:39:00.842Z,13.91
2023-04-22T01:41:28.638Z,13.91
2023-04-22T01:43:59.596Z,13.74
2023-04-22T01:46:27.514Z,13.36
2023-04-22T01:48:54.496Z,12.73
2023-04-22T01:51:23.826Z,12.89
2023-04-22T01:53:52.009Z,12.52
2023-04-22T01:56:19.864Z,12.42
2023-04-22T01:58:47.838Z,12.49
2023-04-22T02:01:14.821Z,12.63
2023-04-22T02:03:42.734Z,12.74
2023-04-22T02:06:09.769Z,12.84
2023-04-22T02:08:36.784Z,13.09
2023-04-22T02:11:04.835Z,12.82
2023-04-22T02:13:40.120Z,12.63
2023-04-22T02:16:09.435Z,12.50
2023-04-22T02:18:38.192Z,12.62
2023-04-22T02:21:06.101Z,12.81
2023-04-22T02:23:34.191Z,12.38
2023-04-22T02:26:01.632Z,12.68
2023-04-22T02:28:29.664Z,12.60
2023-04-22T02:30:57.979Z,12.60
2023-04-22T02:33:25.932Z,12.37
2023-04-22T02:35:53.060Z,12.20
2023-04-22T02:38:20.707Z,12.39
2023-04-22T02:40:47.798Z,12.61
2023-04-22T02:43:14.612Z,12.38
2023-04-22T02:45:42.252Z,12.51
2023-04-22T02:48:09.283Z,12.37
2023-04-22T02:50:38.595Z,12.37
2023-04-22T02:53:08.628Z,12.37
2023-04-22T02:55:39.634Z,12.32
2023-04-22T02:58:07.579Z,12.09
2023-04-22T03:00:35.127Z,12.05
2023-04-22T03:03:03.041Z,11.91
2023-04-22T03:05:30.982Z,11.97
2023-04-22T03:07:58.893Z,11.62
2023-04-22T03:10:25.826Z,11.29
2023-04-22T03:12:53.954Z,11.41
2023-04-22T03:15:22.040Z,11.45
2023-04-22T03:17:50.841Z,10.79
2023-04-22T03:20:17.932Z,10.98
2023-04-22T03:22:46.141Z,11.19
2023-04-22T03:25:13.081Z,11.35
2023-04-22T03:27:41.136Z,11.44
2023-04-22T03:30:08.521Z,11.66
2023-04-22T03:32:37.139Z,11.73
2023-04-22T03:35:05.363Z,11.73
2023-04-22T03:37:33.090Z,11.90
2023-04-22T03:40:00.931Z,12.09
2023-04-22T03:42:27.786Z,11.98
2023-04-22T03:44:55.667Z,12.06
2023-04-22T03:47:24.341Z,11.83
2023-04-22T03:49:51.969Z,11.95
2023-04-22T03:52:19.799Z,11.85
2023-04-22T03:54:46.590Z,11.64
2023-04-22T03:57:13.617Z,11.54
2023-04-22T03:59:42.178Z,11.30
2023-04-22T04:02:11.388Z,11.41
2023-04-22T04:04:39.725Z,11.48
2023-04-22T04:07:07.989Z,11.40
2023-04-22T04:09:35.987Z,11.28
2023-04-22T04:12:03.821Z,11.34
2023-04-22T04:14:30.776Z,11.46
2023-04-22T04:16:59.053Z,11.72
2023-04-22T04:19:26.964Z,11.60
2023-04-22T04:21:55.854Z,11.98
2023-04-22T04:24:22.816Z,12.02
2023-04-22T04:26:50.013Z,12.20
2023-04-22T04:29:20.330Z,12.25
2023-04-22T04:31:48.280Z,12.21
2023-04-22T04:34:15.714Z,12.09
2023-04-22T04:36:43.897Z,12.18
2023-04-22T04:39:11.674Z,11.99
2023-04-22T04:41:38.934Z,11.92
2023-04-22T04:44:07.015Z,11.84
2023-04-22T04:46:38.009Z,12.09
2023-04-22T04:49:05.080Z,11.98
2023-04-22T04:51:34.904Z,12.15
2023-04-22T04:54:01.801Z,12.20
2023-04-22T04:56:31.007Z,12.31
2023-04-22T04:58:58.924Z,12.33
2023-04-22T05:01:27.644Z,12.27
2023-04-22T05:03:55.721Z,12.52
2023-04-22T05:06:23.762Z,12.67
2023-04-22T05:08:51.493Z,12.73
2023-04-22T05:11:18.541Z,12.72
2023-04-22T05:13:49.556Z,12.84
2023-04-22T05:16:17.316Z,12.93
2023-04-22T05:18:44.375Z,12.92
2023-04-22T05:21:11.295Z,12.92
2023-04-22T05:23:39.621Z,12.83
2023-04-22T05:26:07.873Z,13.02
2023-04-22T05:28:35.914Z,13.09
2023-04-22T05:31:02.756Z,13.07
2023-04-22T05:33:31.248Z,13.17
2023-04-22T05:35:58.267Z,13.07
2023-04-22T05:38:25.110Z,13.16
2023-04-22T05:40:53.290Z,13.36
2023-04-22T05:43:21.316Z,13.49
2023-04-22T05:45:49.194Z,13.46
2023-04-22T05:48:17.000Z,13.69
2023-04-22T05:50:46.261Z,13.55
2023-04-22T05:53:13.133Z,13.65
2023-04-22T05:55:42.166Z,13.85
2023-04-22T05:58:09.999Z,13.87
2023-04-22T06:00:36.967Z,13.95
2023-04-22T06:03:04.975Z,14.06
2023-04-22T06:05:32.194Z,14.18
2023-04-22T06:08:04.443Z,14.38
2023-04-22T06:10:33.154Z,14.52
2023-04-22T06:13:01.483Z,14.55
2023-04-22T06:15:29.736Z,14.53
2023-04-22T06:17:57.758Z,14.44
2023-04-22T06:20:26.095Z,14.28
2023-04-22T06:22:53.829Z,14.51
2023-04-22T06:25:22.144Z,14.44
2023-04-22T06:27:49.034Z,14.46
2023-04-22T06:30:16.948Z,14.70
2023-04-22T06:32:44.792Z,14.65
2023-04-22T06:35:12.762Z,14.66
2023-04-22T06:37:40.561Z,14.52
2023-04-22T06:40:08.068Z,14.79
2023-04-22T06:42:34.856Z,14.95
2023-04-22T06:45:04.529Z,15.17
2023-04-22T06:47:32.562Z,15.20
2023-04-22T06:50:02.204Z,15.49
2023-04-22T06:52:30.222Z,15.61
2023-04-22T06:54:57.185Z,15.77
2023-04-22T06:57:25.017Z,15.82
2023-04-22T06:59:53.492Z,15.82
2023-04-22T07:02:21.899Z,16.03
2023-04-22T07:04:52.957Z,16.11
2023-04-22T07:07:20.911Z,16.17
2023-04-22T07:09:49.225Z,16.24
2023-04-22T07:12:17.187Z,16.43
2023-04-22T07:14:44.958Z,16.63
2023-04-22T07:17:12.639Z,16.63
2023-04-22T07:19:41.697Z,16.27
2023-04-22T07:22:10.864Z,16.46
2023-04-22T07:24:39.405Z,16.64
2023-04-22T07:27:07.710Z,16.67
2023-04-22T07:29:35.465Z,16.91
2023-04-22T07:32:03.483Z,16.95
2023-04-22T07:34:31.143Z,16.70
2023-04-22T07:36:59.110Z,16.84
2023-04-22T07:39:26.962Z,16.79
2023-04-22T07:41:56.706Z,16.98
2023-04-22T07:44:24.520Z,16.85
2023-04-22T07:46:54.109Z,16.90
2023-04-22T07:49:21.936Z,17.07
2023-04-22T07:51:49.838Z,17.27
2023-04-22T07:54:18.564Z,17.39
2023-04-22T07:56:46.374Z,17.47
2023-04-22T07:59:14.434Z,17.62
2023-04-22T08:01:41.980Z,17.82
2023-04-22T08:04:10.154Z,18.07
2023-04-22T08:06:38.298Z,18.26
2023-04-22T08:09:06.243Z,18.42
2023-04-22T08:11:33.256Z,18.47
2023-04-22T08:14:00.297Z,18.51
2023-04-22T08:16:27.268Z,18.31
2023-04-22T08:18:56.409Z,18.46
2023-04-22T08:21:24.393Z,18.55
2023-04-22T08:23:52.299Z,18.71
2023-04-22T08:26:20.041Z,18.94
2023-04-22T08:28:47.533Z,19.04
2023-04-22T08:33:59.149Z,18.98
2023-04-22T08:36:27.805Z,19.11
2023-04-22T08:38:55.479Z,18.95
2023-04-22T08:41:26.500Z,19.00
2023-04-22T08:43:54.335Z,19.39
2023-04-22T08:46:22.175Z,19.42
2023-04-22T08:48:50.953Z,19.49
2023-04-22T08:51:18.860Z,19.44
2023-04-22T08:53:47.539Z,19.61
2023-04-22T08:56:15.750Z,19.86
2023-04-22T08:58:44.056Z,19.92
2023-04-22T09:01:12.108Z,20.21
2023-04-22T09:03:42.452Z,20.11
2023-04-22T09:06:11.516Z,19.98
2023-04-22T09:08:39.169Z,20.43
2023-04-22T09:11:07.034Z,20.81
2023-04-22T09:13:35.815Z,21.09
2023-04-22T09:16:03.848Z,21.01
2023-04-22T09:18:38.722Z,21.04
2023-04-22T09:21:07.494Z,21.23
2023-04-22T09:23:54.628Z,21.46
2023-04-22T09:26:24.675Z,21.44
2023-04-22T09:29:01.282Z,21.75
2023-04-22T09:31:29.045Z,21.56
2023-04-22T09:33:59.431Z,21.62
2023-04-22T09:36:28.475Z,21.52
2023-04-22T09:39:07.554Z,21.54
2023-04-22T09:41:38.806Z,20.92
2023-04-22T09:44:15.812Z,20.64
2023-04-22T09:46:44.331Z,20.74
2023-04-22T09:49:12.337Z,21.36
2023-04-22T09:51:43.063Z,21.64
2023-04-22T09:54:12.134Z,21.23
2023-04-22T09:56:51.565Z,21.16
2023-04-22T09:59:24.739Z,21.12
2023-04-22T10:01:55.970Z,20.64
2023-04-22T10:04:25.444Z,20.75
2023-04-22T10:06:55.202Z,20.92
2023-04-22T10:09:25.324Z,20.60
2023-04-22T10:11:55.082Z,20.86
2023-04-22T10:14:24.837Z,20.84
2023-04-22T10:16:59.284Z,21.01
2023-04-22T10:19:28.518Z,20.83
2023-04-22T10:21:59.672Z,21.35
2023-04-22T10:24:29.315Z,21.63
2023-04-22T10:26:59.874Z,21.89
2023-04-22T10:29:37.116Z,22.08
2023-04-22T10:32:11.717Z,22.14
2023-04-22T10:34:39.441Z,22.09
2023-04-22T10:37:09.413Z,22.34
2023-04-22T10:39:39.185Z,22.28
2023-04-22T10:42:12.255Z,22.47
2023-04-22T10:45:08.801Z,22.40
2023-04-22T10:47:38.781Z,22.22
2023-04-22T10:50:23.681Z,21.50
2023-04-22T10:52:59.394Z,21.86
2023-04-22T10:55:53.609Z,22.09
2023-04-22T10:58:22.521Z,21.03
2023-04-22T11:00:58.252Z,21.49
2023-04-22T11:03:28.861Z,21.57
2023-04-22T11:06:22.835Z,21.08
2023-04-22T11:09:07.673Z,21.44
2023-04-22T11:11:35.490Z,21.70
2023-04-22T11:14:03.408Z,21.82
2023-04-22T11:16:31.278Z,21.92
2023-04-22T11:19:00.133Z,22.03
2023-04-22T11:21:28.015Z,22.09
2023-04-22T11:23:56.648Z,22.09
2023-04-22T11:26:35.946Z,22.59
2023-04-22T11:29:04.118Z,21.72
2023-04-22T11:31:32.012Z,21.38
2023-04-22T11:34:00.482Z,22.40
2023-04-22T11:36:28.658Z,22.67
2023-04-22T11:38:57.109Z,22.73
2023-04-22T11:41:24.879Z,22.98
2023-04-22T11:43:52.660Z,23.08
2023-04-22T11:46:31.248Z,22.94
2023-04-22T11:49:17.141Z,22.60
2023-04-22T11:51:57.871Z,22.25
2023-04-22T11:54:37.062Z,22.20
2023-04-22T11:57:08.468Z,22.12
2023-04-22T11:59:36.191Z,21.98
2023-04-22T12:02:07.680Z,22.37
2023-04-22T12:04:42.186Z,22.14
2023-04-22T12:07:09.846Z,22.77
2023-04-22T12:09:39.943Z,23.40
2023-04-22T12:12:08.400Z,23.51
2023-04-22T12:14:37.359Z,22.10
2023-04-22T12:17:05.943Z,22.54
2023-04-22T12:19:33.714Z,22.56
2023-04-22T12:22:03.184Z,22.29
2023-04-22T12:24:31.154Z,22.74
2023-04-22T12:26:59.034Z,22.62
2023-04-22T12:29:30.607Z,22.65
2023-04-22T12:31:58.349Z,22.61
2023-04-22T12:34:26.124Z,22.77
2023-04-22T12:36:55.087Z,22.78
2023-04-22T12:39:22.955Z,21.83
2023-04-22T12:41:51.273Z,22.34
2023-04-22T12:44:18.858Z,22.28
2023-04-22T12:46:46.895Z,22.44
2023-04-22T12:49:14.681Z,22.63
2023-04-22T12:51:42.335Z,22.79
2023-04-22T12:54:10.814Z,23.19
2023-04-22T12:56:38.761Z,23.57
2023-04-22T12:59:06.506Z,23.50
2023-04-22T13:01:35.984Z,23.65
2023-04-22T13:04:03.941Z,23.64
2023-04-22T13:06:34.707Z,23.76
2023-04-22T13:09:03.535Z,23.63
2023-04-22T13:11:31.204Z,23.86
2023-04-22T13:13:59.063Z,23.54
2023-04-22T13:16:26.732Z,23.79
2023-04-22T13:18:54.331Z,23.88
2023-04-22T13:21:21.971Z,24.16
2023-04-22T13:23:49.694Z,23.93
2023-04-22T13:26:17.271Z,24.14
2023-04-22T13:28:44.881Z,24.26
2023-04-22T13:31:12.530Z,24.58
2023-04-22T13:33:40.074Z,24.34
2023-04-22T13:36:07.892Z,23.79
2023-04-22T13:38:35.855Z,24.32
2023-04-22T13:41:03.562Z,23.74
2023-04-22T13:43:31.401Z,24.11
2023-04-22T13:45:59.379Z,24.24
2023-04-22T13:48:27.911Z,24.85
2023-04-22T13:50:56.465Z,24.75
2023-04-22T13:53:24.764Z,24.76
2023-04-22T13:55:52.349Z,24.24
2023-04-22T13:58:20.156Z,24.62
2023-04-22T14:00:48.843Z,24.11
2023-04-22T14:03:16.819Z,24.64
2023-04-22T14:05:44.680Z,24.94
2023-04-22T14:08:13.137Z,24.26
2023-04-22T14:10:40.898Z,24.68
2023-04-22T14:13:09.485Z,24.40
2023-04-22T14:15:38.511Z,24.10
2023-04-22T14:18:06.727Z,24.56
2023-04-22T14:20:34.458Z,24.74
2023-04-22T14:23:05.287Z,25.03
2023-04-22T14:25:33.178Z,25.31
2023-04-22T14:28:00.925Z,25.81
2023-04-22T14:30:28.947Z,25.90
2023-04-22T14:32:56.505Z,25.62
2023-04-22T14:35:24.316Z,25.50
2023-04-22T14:37:52.052Z,25.56
2023-04-22T14:40:20.544Z,25.67
2023-04-22T14:42:48.189Z,25.66
2023-04-22T14:45:15.805Z,25.51
2023-04-22T14:47:43.316Z,25.55
2023-04-22T14:50:11.548Z,25.23
2023-04-22T14:52:39.674Z,24.74
2023-04-22T14:55:19.476Z,24.98
2023-04-22T14:57:49.479Z,25.18
2023-04-22T15:00:17.343Z,25.07
2023-04-22T15:02:45.412Z,25.25
2023-04-22T15:05:14.106Z,25.20
2023-04-22T15:07:41.814Z,24.88
2023-04-22T15:10:09.833Z,24.45
2023-04-22T15:12:37.692Z,23.60
2023-04-22T15:15:05.820Z,23.12
2023-04-22T15:17:35.432Z,22.44
2023-04-22T15:20:05.708Z,22.36
2023-04-22T15:22:34.567Z,22.59
2023-04-22T15:25:22.113Z,22.30
2023-04-22T15:27:50.273Z,22.05
2023-04-22T15:30:19.204Z,22.17
2023-04-22T15:32:48.161Z,22.00
2023-04-22T15:35:16.130Z,21.98
2023-04-22T15:37:45.856Z,22.05
2023-04-22T15:40:13.718Z,22.52
2023-04-22T15:42:41.481Z,22.95
2023-04-22T15:45:10.531Z,22.99
2023-04-22T15:47:40.715Z,22.39
2023-04-22T15:50:09.752Z,22.48
2023-04-22T15:52:38.389Z,22.48
2023-04-22T15:55:07.925Z,22.82
2023-04-22T15:57:36.045Z,23.09
2023-04-22T16:00:14.138Z,23.42
2023-04-22T16:02:43.904Z,23.51
2023-04-22T16:05:12.824Z,23.24
2023-04-22T16:07:40.648Z,22.85
2023-04-22T16:10:09.852Z,22.71
2023-04-22T16:12:37.535Z,22.35
2023-04-22T16:15:06.875Z,21.86
2023-04-22T16:17:34.832Z,21.30
2023-04-22T16:20:06.300Z,21.40
2023-04-22T16:22:34.202Z,22.03
2023-04-22T16:25:02.491Z,22.44
2023-04-22T16:27:30.852Z,22.84
2023-04-22T16:29:58.524Z,22.55
2023-04-22T16:32:26.160Z,22.66
2023-04-22T16:34:54.002Z,22.82
2023-04-22T16:37:21.748Z,22.96
2023-04-22T16:39:49.470Z,23.00
2023-04-22T16:42:17.482Z,23.01
2023-04-22T16:44:45.385Z,22.58
2023-04-22T16:47:13.282Z,22.86
2023-04-22T16:49:41.132Z,22.79
2023-04-22T16:52:09.054Z,22.80
2023-04-22T16:54:36.827Z,22.98
2023-04-22T16:57:05.092Z,23.08
2023-04-22T16:59:32.867Z,23.14
2023-04-22T17:02:00.999Z,23.19
2023-04-22T17:04:28.865Z,23.16
2023-04-22T17:06:56.783Z,23.04
2023-04-22T17:09:24.482Z,23.06
2023-04-22T17:11:52.371Z,23.11
2023-04-22T17:14:20.909Z,23.16
2023-04-22T17:16:49.774Z,23.18
2023-04-22T17:19:17.521Z,23.21
2023-04-22T17:21:45.422Z,23.10
2023-04-22T17:24:14.066Z,23.08
2023-04-22T17:26:41.794Z,23.09
2023-04-22T17:29:10.405Z,23.07
2023-04-22T17:31:39.285Z,22.92
2023-04-22T17:34:07.727Z,22.86
2023-04-22T17:36:36.427Z,22.85
2023-04-22T17:39:05.265Z,22.74
2023-04-22T17:41:33.858Z,22.59
2023-04-22T17:44:02.802Z,22.56
2023-04-22T17:46:31.727Z,22.46
2023-04-22T17:48:59.658Z,22.42
2023-04-22T17:51:28.531Z,22.23
2023-04-22T17:53:58.667Z,22.06
2023-04-22T17:56:26.967Z,21.87
2023-04-22T17:58:55.575Z,21.75
2023-04-22T18:01:24.248Z,21.34
2023-04-22T18:03:52.095Z,21.20
2023-04-22T18:06:20.033Z,21.31
2023-04-22T18:08:47.767Z,21.35
2023-04-22T18:11:15.944Z,21.32
2023-04-22T18:13:43.700Z,21.26
2023-04-22T18:16:11.585Z,21.18
2023-04-22T18:21:26.065Z,21.45
2023-04-22T18:23:54.838Z,21.51
2023-04-22T18:26:23.108Z,21.43
2023-04-22T18:28:51.674Z,21.39
2023-04-22T18:31:20.676Z,21.37
2023-04-22T18:33:48.730Z,21.42
2023-04-22T18:36:18.553Z,21.33
2023-04-22T18:38:47.372Z,21.18
2023-04-22T18:41:16.594Z,21.13
2023-04-22T18:43:44.555Z,21.13
2023-04-22T18:46:13.514Z,20.98
2023-04-22T18:48:41.721Z,20.96
2023-04-22T18:51:10.459Z,20.76
2023-04-22T18:53:39.526Z,20.53
2023-04-22T18:56:08.422Z,20.54
2023-04-22T18:58:37.369Z,20.41
2023-04-22T19:01:07.321Z,20.46
2023-04-22T19:03:35.758Z,20.32
2023-04-22T19:06:04.527Z,20.26
2023-04-22T19:08:32.436Z,20.20
2023-04-22T19:11:03.624Z,20.14
2023-04-22T19:13:32.690Z,20.08
2023-04-22T19:16:00.538Z,20.00
2023-04-22T19:18:28.470Z,20.00
2023-04-22T19:20:57.689Z,19.93
2023-04-22T19:23:25.964Z,19.87
2023-04-22T19:25:55.155Z,19.74
2023-04-22T19:28:23.775Z,19.71
2023-04-22T19:30:52.016Z,19.78
2023-04-22T19:33:20.026Z,19.60
2023-04-22T19:35:48.611Z,19.36
2023-04-22T19:38:19.240Z,19.05
2023-04-22T19:40:47.993Z,19.14
2023-04-22T19:43:19.861Z,19.02
2023-04-22T19:45:48.593Z,19.02
2023-04-22T19:48:17.637Z,19.02
2023-04-22T19:50:48.035Z,19.04
2023-04-22T19:53:18.606Z,18.92
2023-04-22T19:55:47.717Z,18.92
2023-04-22T19:58:17.241Z,19.00
2023-04-22T20:00:46.115Z,18.87
2023-04-22T20:03:16.274Z,18.89
2023-04-22T20:05:46.404Z,18.67
2023-04-22T20:08:19.884Z,18.65
2023-04-22T20:10:49.812Z,18.65
2023-04-22T20:13:18.690Z,18.61
2023-04-22T20:15:46.846Z,18.65
2023-04-22T20:18:15.933Z,18.42
2023-04-22T20:20:49.850Z,18.51
2023-04-22T20:23:30.769Z,18.41
2023-04-22T20:26:01.066Z,18.43
2023-04-22T20:28:49.520Z,18.40
2023-04-22T20:31:20.558Z,18.37
2023-04-22T20:33:50.702Z,18.27
2023-04-22T20:36:24.125Z,18.26
2023-04-22T20:38:54.964Z,18.15
2023-04-22T20:41:24.691Z,18.06
2023-04-22T20:43:53.699Z,18.04
2023-04-22T20:46:23.236Z,17.83
2023-04-22T20:48:53.499Z,17.68
2023-04-22T20:51:22.211Z,17.72
2023-04-22T20:53:51.111Z,17.82
2023-04-22T20:56:21.538Z,17.69
2023-04-22T20:58:50.395Z,17.53
2023-04-22T21:01:19.696Z,17.43
2023-04-22T21:03:52.641Z,17.50
2023-04-22T21:06:22.185Z,17.51
2023-04-22T21:08:51.296Z,17.56
2023-04-22T21:11:20.942Z,17.62
2023-04-22T21:13:51.046Z,17.56
2023-04-22T21:16:23.909Z,17.47
2023-04-22T21:18:59.355Z,17.25
2023-04-22T21:21:34.569Z,17.32
2023-04-22T21:24:07.269Z,17.27
2023-04-22T21:26:37.882Z,17.27
2023-04-22T21:29:06.839Z,17.33
2023-04-22T21:31:35.503Z,17.05
2023-04-22T21:34:04.607Z,17.16
2023-04-22T21:36:33.322Z,17.12
2023-04-22T21:39:04.301Z,17.10
2023-04-22T21:41:33.010Z,17.07
2023-04-22T21:44:01.817Z,17.13
2023-04-22T21:46:30.719Z,17.08
2023-04-22T21:49:00.010Z,17.18
2023-04-22T21:51:28.841Z,16.96
2023-04-22T21:53:57.495Z,16.98
2023-04-22T21:56:26.633Z,16.94
2023-04-22T21:58:55.744Z,16.95
2023-04-22T22:01:25.834Z,16.84
2023-04-22T22:03:54.915Z,16.83
2023-04-22T22:06:24.046Z,16.85
2023-04-22T22:08:53.357Z,16.81
2023-04-22T22:13:53.720Z,16.65
2023-04-22T22:16:23.504Z,16.66
2023-04-22T22:18:52.473Z,16.60
2023-04-22T22:21:21.498Z,16.56
2023-04-22T22:23:50.251Z,16.52
2023-04-22T22:26:19.452Z,16.50
2023-04-22T22:28:48.156Z,16.49
2023-04-22T22:31:16.750Z,16.42
2023-04-22T22:33:45.879Z,16.38
2023-04-22T22:36:18.113Z,16.35
2023-04-22T22:38:47.061Z,16.33
2023-04-22T22:41:15.811Z,16.24
2023-04-22T22:43:45.870Z,16.17
2023-04-22T22:46:14.633Z,16.12
2023-04-22T22:48:44.205Z,16.11
2023-04-22T22:51:17.126Z,16.09
2023-04-22T22:53:49.040Z,16.07
2023-04-22T22:56:20.911Z,16.04
2023-04-22T22:58:49.819Z,16.06
2023-04-22T23:01:18.738Z,16.01
2023-04-22T23:03:48.685Z,16.04
2023-04-22T23:06:15.866Z,15.96
2023-04-22T23:08:45.386Z,15.93
2023-04-22T23:11:14.952Z,15.91
2023-04-22T23:13:44.813Z,15.79
2023-04-22T23:16:13.845Z,15.62
2023-04-22T23:18:44.318Z,15.15
2023-04-22T23:21:13.302Z,15.09
2023-04-22T23:23:42.856Z,15.06
2023-04-22T23:26:11.989Z,14.93
2023-04-22T23:28:40.928Z,14.64
2023-04-22T23:31:10.753Z,14.83
2023-04-22T23:33:42.428Z,14.98
2023-04-22T23:36:13.077Z,14.99
2023-04-22T23:38:41.772Z,15.05
2023-04-22T23:41:10.535Z,15.00
2023-04-22T23:43:39.314Z,15.17
2023-04-22T23:46:08.191Z,15.22
2023-04-22T23:48:37.083Z,15.06
2023-04-22T23:51:05.972Z,14.77
2023-04-22T23:53:34.759Z,14.78
2023-04-22T23:56:03.943Z,14.85
2023-04-22T23:58:32.763Z,14.70
